createdAt,value
2022-09-01T00:01:33.799Z,14.46
2022-09-01T00:06:33.728Z,14.28
2022-09-01T00:11:33.667Z,16.67
2022-09-01T00:16:33.597Z,15.75
2022-09-01T00:21:33.532Z,15.15
2022-09-01T00:26:33.467Z,14.83
2022-09-01T00:31:33.448Z,14.46
2022-09-01T00:36:33.328Z,14.21
2022-09-01T00:41:33.289Z,13.98
2022-09-01T00:46:33.325Z,14.02
2022-09-01T00:51:33.127Z,14.01
2022-09-01T00:56:33.048Z,14.06
2022-09-01T01:01:33.030Z,14.50
2022-09-01T01:06:32.932Z,14.14
2022-09-01T01:11:32.860Z,14.13
2022-09-01T01:16:32.863Z,14.02
2022-09-01T01:21:32.743Z,13.92
2022-09-01T01:26:32.669Z,13.88
2022-09-01T01:31:32.644Z,13.70
2022-09-01T01:36:32.778Z,13.47
2022-09-01T01:41:32.483Z,13.47
2022-09-01T01:46:32.605Z,13.36
2022-09-01T01:51:32.363Z,13.87
2022-09-01T01:56:32.290Z,13.87
2022-09-01T02:01:32.330Z,13.89
2022-09-01T02:06:32.180Z,13.59
2022-09-01T02:11:32.110Z,13.61
2022-09-01T02:16:32.071Z,13.67
2022-09-01T02:21:31.971Z,13.55
2022-09-01T02:26:31.900Z,13.61
2022-09-01T02:31:31.893Z,13.63
2022-09-01T02:36:31.771Z,13.44
2022-09-01T02:41:31.712Z,13.52
2022-09-01T02:46:31.650Z,13.47
2022-09-01T02:51:31.751Z,13.56
2022-09-01T02:56:31.519Z,13.61
2022-09-01T03:01:31.530Z,13.54
2022-09-01T03:06:31.391Z,13.95
2022-09-01T03:11:31.341Z,13.91
2022-09-01T03:16:31.358Z,13.80
2022-09-01T03:21:31.202Z,14.04
2022-09-01T03:26:31.142Z,14.25
2022-09-01T03:31:31.592Z,14.35
2022-09-01T03:36:31.025Z,14.13
2022-09-01T03:41:31.035Z,13.80
2022-09-01T03:46:35.708Z,13.65
2022-09-01T03:51:31.940Z,13.62
2022-09-01T03:56:31.002Z,13.73
2022-09-01T04:01:30.734Z,13.96
2022-09-01T04:06:30.622Z,14.13
2022-09-01T04:11:30.562Z,13.99
2022-09-01T04:16:30.605Z,13.96
2022-09-01T04:21:30.457Z,13.83
2022-09-01T04:26:30.365Z,13.94
2022-09-01T04:31:30.394Z,14.06
2022-09-01T04:36:30.245Z,14.06
2022-09-01T04:41:30.185Z,14.10
2022-09-01T04:46:30.135Z,14.12
2022-09-01T04:51:30.064Z,14.13
2022-09-01T04:56:29.993Z,14.13
2022-09-01T05:01:30.172Z,14.29
2022-09-01T05:06:29.858Z,14.37
2022-09-01T05:11:29.801Z,14.43
2022-09-01T05:16:29.745Z,14.53
2022-09-01T05:21:29.702Z,14.54
2022-09-01T05:26:29.575Z,14.72
2022-09-01T05:31:29.597Z,14.90
2022-09-01T05:36:29.491Z,15.12
2022-09-01T05:41:29.401Z,15.38
2022-09-01T05:46:29.392Z,15.78
2022-09-01T05:51:46.042Z,15.85
2022-09-01T05:56:30.211Z,15.97
2022-09-01T06:01:29.149Z,16.07
2022-09-01T06:06:40.042Z,16.42
2022-09-01T06:11:30.008Z,16.26
2022-09-01T06:16:29.001Z,16.26
2022-09-01T06:21:28.871Z,16.16
2022-09-01T06:26:28.807Z,16.52
2022-09-01T06:31:28.805Z,17.74
2022-09-01T06:36:33.144Z,17.47
2022-09-01T06:41:29.609Z,17.67
2022-09-01T06:46:28.580Z,18.22
2022-09-01T06:51:28.511Z,18.07
2022-09-01T06:56:31.962Z,18.31
2022-09-01T07:01:28.484Z,18.44
2022-09-01T07:16:34.065Z,19.80
2022-09-01T07:21:39.479Z,19.90
2022-09-01T07:26:29.014Z,19.61
2022-09-01T07:36:29.292Z,21.88
2022-09-01T07:46:44.136Z,21.81
2022-09-01T07:51:37.151Z,21.94
2022-09-01T07:56:28.633Z,22.01
2022-09-01T08:01:27.636Z,21.66
2022-09-01T08:06:28.007Z,22.32
2022-09-01T08:11:58.169Z,21.01
2022-09-01T08:16:39.465Z,21.34
2022-09-01T08:21:28.304Z,21.14
2022-09-01T08:26:27.245Z,21.45
2022-09-01T08:31:30.520Z,20.66
2022-09-01T08:36:27.157Z,21.04
2022-09-01T08:41:28.642Z,21.26
2022-09-01T08:46:27.024Z,21.30
2022-09-01T08:51:26.928Z,21.69
2022-09-01T08:56:26.855Z,21.53
2022-09-01T09:01:26.863Z,21.72
2022-09-01T09:06:26.740Z,21.17
2022-09-01T09:11:26.825Z,21.67
2022-09-01T09:16:26.680Z,21.79
2022-09-01T09:21:26.568Z,21.91
2022-09-01T09:26:26.672Z,21.66
2022-09-01T09:31:26.475Z,22.23
2022-09-01T09:36:26.337Z,22.19
2022-09-01T09:41:27.424Z,22.13
2022-09-01T09:46:26.266Z,22.50
2022-09-01T09:51:28.960Z,22.99
2022-09-01T09:56:26.072Z,22.47
2022-09-01T10:01:26.125Z,22.50
2022-09-01T10:06:25.950Z,22.97
2022-09-01T10:11:28.932Z,23.20
2022-09-01T10:16:27.799Z,23.24
2022-09-01T10:21:25.774Z,23.65
2022-09-01T10:26:25.895Z,23.12
2022-09-01T10:31:32.086Z,23.55
2022-09-01T10:36:26.559Z,23.40
2022-09-01T10:41:25.516Z,23.53
2022-09-01T10:46:26.179Z,23.35
2022-09-01T10:51:28.881Z,23.15
2022-09-01T10:56:35.510Z,23.11
2022-09-01T11:01:47.743Z,22.80
2022-09-01T11:06:33.306Z,22.92
2022-09-01T11:11:26.091Z,23.04
2022-09-01T11:21:26.034Z,23.49
2022-09-01T11:26:24.935Z,24.13
2022-09-01T11:31:25.077Z,24.00
2022-09-01T11:36:25.381Z,23.55
2022-09-01T11:41:24.724Z,23.46
2022-09-01T11:46:24.643Z,22.94
2022-09-01T11:51:24.604Z,22.43
2022-09-01T11:56:24.531Z,22.31
2022-09-01T12:01:24.473Z,21.99
2022-09-01T12:06:24.397Z,21.72
2022-09-01T12:11:24.349Z,21.78
2022-09-01T12:16:24.360Z,21.94
2022-09-01T12:21:24.196Z,22.16
2022-09-01T12:26:24.134Z,22.23
2022-09-01T12:31:24.107Z,22.27
2022-09-01T12:36:23.985Z,22.68
2022-09-01T12:41:24.048Z,23.01
2022-09-01T12:46:23.880Z,23.57
2022-09-01T12:51:26.509Z,23.52
2022-09-01T12:56:23.718Z,23.32
2022-09-01T13:01:23.773Z,23.61
2022-09-01T13:06:23.598Z,23.46
2022-09-01T13:11:23.711Z,23.62
2022-09-01T13:16:23.495Z,23.52
2022-09-01T13:21:23.429Z,23.77
2022-09-01T13:26:23.331Z,24.20
2022-09-01T13:31:30.737Z,23.67
2022-09-01T13:41:24.166Z,22.75
2022-09-01T13:46:23.063Z,22.49
2022-09-01T13:51:23.043Z,22.28
2022-09-01T13:56:22.959Z,22.39
2022-09-01T14:01:22.938Z,21.92
2022-09-01T14:06:22.846Z,21.85
2022-09-01T14:11:22.755Z,21.76
2022-09-01T14:16:22.717Z,21.63
2022-09-01T14:21:22.619Z,21.45
2022-09-01T14:26:22.544Z,21.39
2022-09-01T14:31:22.489Z,21.41
2022-09-01T14:36:22.412Z,21.27
2022-09-01T14:41:22.344Z,21.05
2022-09-01T14:46:22.487Z,20.87
2022-09-01T14:51:22.245Z,20.93
2022-09-01T14:56:22.157Z,20.87
2022-09-01T15:01:34.366Z,20.84
2022-09-01T15:06:23.034Z,20.81
2022-09-01T15:11:21.962Z,20.87
2022-09-01T15:16:21.908Z,21.05
2022-09-01T15:21:21.858Z,21.19
2022-09-01T15:26:21.774Z,21.05
2022-09-01T15:31:24.869Z,20.84
2022-09-01T15:36:22.666Z,20.53
2022-09-01T15:41:21.556Z,20.41
2022-09-01T15:46:21.526Z,20.24
2022-09-01T15:51:21.447Z,20.16
2022-09-01T15:56:21.392Z,20.54
2022-09-01T16:01:21.376Z,20.62
2022-09-01T16:06:21.277Z,20.80
2022-09-01T16:11:21.179Z,20.77
2022-09-01T16:16:21.140Z,20.66
2022-09-01T16:21:21.220Z,20.65
2022-09-01T16:26:21.035Z,20.68
2022-09-01T16:31:20.977Z,20.68
2022-09-01T16:36:20.835Z,20.56
2022-09-01T16:41:20.756Z,20.49
2022-09-01T16:46:20.776Z,20.31
2022-09-01T16:51:20.634Z,20.16
2022-09-01T16:56:20.589Z,19.87
2022-09-01T17:01:20.714Z,19.63
2022-09-01T17:06:20.442Z,19.79
2022-09-01T17:11:20.519Z,19.75
2022-09-01T17:16:20.401Z,19.20
2022-09-01T17:21:20.237Z,18.90
2022-09-01T17:26:20.429Z,18.86
2022-09-01T17:31:20.181Z,18.90
2022-09-01T17:36:20.061Z,18.95
2022-09-01T17:41:20.035Z,18.79
2022-09-01T17:46:19.999Z,18.77
2022-09-01T17:51:19.850Z,18.50
2022-09-01T17:56:19.806Z,18.46
2022-09-01T18:01:19.765Z,18.04
2022-09-01T18:06:19.674Z,17.95
2022-09-01T18:11:19.652Z,17.97
2022-09-01T18:16:19.735Z,18.34
2022-09-01T18:21:19.435Z,18.09
2022-09-01T18:26:19.373Z,17.73
2022-09-01T18:31:19.574Z,17.57
2022-09-01T18:36:19.235Z,17.04
2022-09-01T18:41:19.219Z,16.62
2022-09-01T18:46:19.226Z,16.41
2022-09-01T18:51:19.139Z,16.35
2022-09-01T18:56:19.059Z,16.26
2022-09-01T19:01:18.950Z,16.18
2022-09-01T19:06:18.897Z,16.23
2022-09-01T19:11:18.796Z,16.01
2022-09-01T19:16:18.842Z,15.82
2022-09-01T19:21:18.647Z,16.06
2022-09-01T19:26:18.599Z,15.92
2022-09-01T19:31:18.638Z,15.67
2022-09-01T19:36:18.629Z,15.52
2022-09-01T19:41:20.205Z,15.38
2022-09-01T19:46:18.455Z,15.42
2022-09-01T19:51:18.239Z,15.26
2022-09-01T19:56:18.249Z,15.38
2022-09-01T20:01:18.204Z,15.42
2022-09-01T20:06:18.128Z,15.42
2022-09-01T20:11:18.042Z,15.21
2022-09-01T20:16:17.996Z,15.08
2022-09-01T20:21:21.313Z,14.93
2022-09-01T20:26:17.831Z,14.94
2022-09-01T20:31:17.811Z,15.12
2022-09-01T20:36:17.664Z,15.15
2022-09-01T20:41:17.788Z,15.17
2022-09-01T20:46:17.577Z,15.38
2022-09-01T20:51:17.452Z,15.49
2022-09-01T20:56:17.393Z,15.42
2022-09-01T21:01:18.211Z,14.88
2022-09-01T21:06:17.285Z,14.71
2022-09-01T21:11:17.212Z,14.69
2022-09-01T21:16:17.185Z,14.49
2022-09-01T21:21:17.072Z,14.31
2022-09-01T21:26:16.993Z,14.10
2022-09-01T21:31:17.002Z,14.32
2022-09-01T21:36:16.866Z,14.38
2022-09-01T21:41:16.802Z,14.43
2022-09-01T21:46:16.794Z,14.24
2022-09-01T21:51:16.655Z,13.98
2022-09-01T21:56:16.610Z,14.01
2022-09-01T22:01:16.580Z,14.10
2022-09-01T22:06:16.483Z,14.17
2022-09-01T22:11:16.392Z,13.77
2022-09-01T22:16:16.325Z,13.71
2022-09-01T22:21:16.256Z,13.69
2022-09-01T22:26:16.203Z,13.74
2022-09-01T22:31:16.185Z,14.10
2022-09-01T22:36:16.113Z,14.09
2022-09-01T22:41:16.006Z,13.98
2022-09-01T22:46:16.001Z,13.63
2022-09-01T22:51:16.046Z,13.46
2022-09-01T22:56:15.817Z,13.38
2022-09-01T23:01:15.831Z,13.20
2022-09-01T23:06:26.866Z,13.03
2022-09-01T23:11:16.614Z,13.04
2022-09-01T23:16:15.579Z,12.96
2022-09-01T23:21:15.484Z,13.00
2022-09-01T23:26:15.414Z,13.29
2022-09-01T23:31:15.403Z,12.81
2022-09-01T23:36:15.288Z,12.89
2022-09-01T23:41:15.228Z,12.71
2022-09-01T23:46:15.181Z,12.67
2022-09-01T23:51:15.087Z,13.04
2022-09-01T23:56:15.038Z,12.89
